Sunny Isles, Florida
Current Conditions -  °F | °C
As of 10:21 PM on Friday 21 Nov 2014 (Local Time) from KHWO Reporting Station
Light Rain Light Rain  
Wind Chill: 73°   Ceiling: 2900
Heat Index: 73°   Visibility: 10mi
Dew Point: 67°   Wind: 17mph
Humidity: 81%   Direction: 60°ENE
Pressure: 30.2"   Gusts: NA
Location:  25.9339°N, 80.1467°W
Report Text: KHWO 220321Z AUTO 06015KT 10SM -RA SCT022 OVC029 23/19 A3020 RMK AO2 RAB20 P0000 T02280194
Loading
Personal Weather Stations






























Interactive Weather Map New forecast layout! Learn more

10-Day Weather Forecast

Advertisements
Track Severe Weather on mobile